sensor_id;sensor_type;location;lat;lon;timestamp;temperature;humidity
51615;DHT22;37695;52.960;6.188;2022-09-02T00:02:20;14.50;99.90
51615;DHT22;37695;52.960;6.188;2022-09-02T00:04:46;14.40;99.90
51615;DHT22;37695;52.960;6.188;2022-09-02T00:07:12;14.40;99.90
51615;DHT22;37695;52.960;6.188;2022-09-02T00:09:37;14.30;99.90
51615;DHT22;37695;52.960;6.188;2022-09-02T00:12:05;14.30;99.90
51615;DHT22;37695;52.960;6.188;2022-09-02T00:14:34;14.20;99.90
51615;DHT22;37695;52.960;6.188;2022-09-02T00:17:01;14.20;99.90
51615;DHT22;37695;52.960;6.188;2022-09-02T00:19:28;14.20;99.90
51615;DHT22;37695;52.960;6.188;2022-09-02T00:21:56;14.10;99.90
51615;DHT22;37695;52.960;6.188;2022-09-02T00:24:22;14.10;99.90
51615;DHT22;37695;52.960;6.188;2022-09-02T00:26:49;14.00;99.90
51615;DHT22;37695;52.960;6.188;2022-09-02T00:29:14;14.00;99.90
51615;DHT22;37695;52.960;6.188;2022-09-02T00:31:42;14.00;99.90
51615;DHT22;37695;52.960;6.188;2022-09-02T00:34:09;14.00;99.90
51615;DHT22;37695;52.960;6.188;2022-09-02T00:36:35;14.00;99.90
51615;DHT22;37695;52.960;6.188;2022-09-02T00:39:05;13.90;99.90
51615;DHT22;37695;52.960;6.188;2022-09-02T00:41:32;13.90;99.90
51615;DHT22;37695;52.960;6.188;2022-09-02T00:44:11;13.80;99.90
51615;DHT22;37695;52.960;6.188;2022-09-02T00:46:37;13.80;99.90
51615;DHT22;37695;52.960;6.188;2022-09-02T00:52:13;13.70;99.90
51615;DHT22;37695;52.960;6.188;2022-09-02T00:54:49;13.70;99.90
51615;DHT22;37695;52.960;6.188;2022-09-02T00:57:17;13.70;99.90
51615;DHT22;37695;52.960;6.188;2022-09-02T01:00:11;13.60;99.90
51615;DHT22;37695;52.960;6.188;2022-09-02T01:02:40;14.00;99.90
51615;DHT22;37695;52.960;6.188;2022-09-02T01:05:10;13.50;99.90
51615;DHT22;37695;52.960;6.188;2022-09-02T01:07:37;13.50;99.90
51615;DHT22;37695;52.960;6.188;2022-09-02T01:10:06;13.40;99.90
51615;DHT22;37695;52.960;6.188;2022-09-02T01:12:33;13.40;99.90
51615;DHT22;37695;52.960;6.188;2022-09-02T01:15:01;13.40;99.90
51615;DHT22;37695;52.960;6.188;2022-09-02T01:17:27;13.40;99.90
51615;DHT22;37695;52.960;6.188;2022-09-02T01:19:58;13.30;99.90
51615;DHT22;37695;52.960;6.188;2022-09-02T01:22:28;13.30;99.90
51615;DHT22;37695;52.960;6.188;2022-09-02T01:24:56;13.30;99.90
51615;DHT22;37695;52.960;6.188;2022-09-02T01:27:24;13.30;99.90
51615;DHT22;37695;52.960;6.188;2022-09-02T01:29:52;13.30;99.90
51615;DHT22;37695;52.960;6.188;2022-09-02T01:32:18;13.20;99.90
51615;DHT22;37695;52.960;6.188;2022-09-02T01:34:45;13.20;99.90
51615;DHT22;37695;52.960;6.188;2022-09-02T01:37:10;13.20;99.90
51615;DHT22;37695;52.960;6.188;2022-09-02T01:39:36;13.10;99.90
51615;DHT22;37695;52.960;6.188;2022-09-02T01:42:02;13.10;99.90
51615;DHT22;37695;52.960;6.188;2022-09-02T01:44:28;13.10;99.90
51615;DHT22;37695;52.960;6.188;2022-09-02T01:46:54;13.10;99.90
51615;DHT22;37695;52.960;6.188;2022-09-02T01:49:20;13.10;99.90
51615;DHT22;37695;52.960;6.188;2022-09-02T01:51:46;13.10;99.90
51615;DHT22;37695;52.960;6.188;2022-09-02T01:54:12;13.10;99.90
51615;DHT22;37695;52.960;6.188;2022-09-02T01:56:38;13.00;99.90
51615;DHT22;37695;52.960;6.188;2022-09-02T01:59:03;13.00;99.90
51615;DHT22;37695;52.960;6.188;2022-09-02T02:01:33;12.90;99.90
51615;DHT22;37695;52.960;6.188;2022-09-02T02:03:59;12.90;99.90
51615;DHT22;37695;52.960;6.188;2022-09-02T02:06:26;12.90;99.90
51615;DHT22;37695;52.960;6.188;2022-09-02T02:08:52;12.80;99.90
51615;DHT22;37695;52.960;6.188;2022-09-02T02:11:20;12.80;99.90
51615;DHT22;37695;52.960;6.188;2022-09-02T02:13:46;12.70;99.90
51615;DHT22;37695;52.960;6.188;2022-09-02T02:16:12;12.70;99.90
51615;DHT22;37695;52.960;6.188;2022-09-02T02:18:38;12.70;99.90
51615;DHT22;37695;52.960;6.188;2022-09-02T02:21:03;12.60;99.90
51615;DHT22;37695;52.960;6.188;2022-09-02T02:23:29;12.60;99.90
51615;DHT22;37695;52.960;6.188;2022-09-02T02:25:55;12.60;99.90
51615;DHT22;37695;52.960;6.188;2022-09-02T02:28:20;12.60;99.90
51615;DHT22;37695;52.960;6.188;2022-09-02T02:30:46;12.70;99.90
51615;DHT22;37695;52.960;6.188;2022-09-02T02:33:12;12.60;99.90
51615;DHT22;37695;52.960;6.188;2022-09-02T02:35:38;12.50;99.90
51615;DHT22;37695;52.960;6.188;2022-09-02T02:38:04;12.50;99.90
51615;DHT22;37695;52.960;6.188;2022-09-02T02:40:30;12.40;99.90
51615;DHT22;37695;52.960;6.188;2022-09-02T02:42:55;12.40;99.90
51615;DHT22;37695;52.960;6.188;2022-09-02T02:45:22;12.50;99.90
51615;DHT22;37695;52.960;6.188;2022-09-02T02:47:48;12.40;99.90
51615;DHT22;37695;52.960;6.188;2022-09-02T02:50:16;12.30;99.90
51615;DHT22;37695;52.960;6.188;2022-09-02T02:52:43;12.30;99.90
51615;DHT22;37695;52.960;6.188;2022-09-02T02:55:10;12.30;99.90
51615;DHT22;37695;52.960;6.188;2022-09-02T02:57:37;12.20;99.90
51615;DHT22;37695;52.960;6.188;2022-09-02T03:02:33;12.10;99.90
51615;DHT22;37695;52.960;6.188;2022-09-02T03:04:59;12.10;99.90
51615;DHT22;37695;52.960;6.188;2022-09-02T03:07:26;12.20;99.90
51615;DHT22;37695;52.960;6.188;2022-09-02T03:09:52;12.10;99.90
51615;DHT22;37695;52.960;6.188;2022-09-02T03:12:17;12.00;99.90
51615;DHT22;37695;52.960;6.188;2022-09-02T03:14:43;12.00;99.90
51615;DHT22;37695;52.960;6.188;2022-09-02T03:17:09;12.00;99.90
51615;DHT22;37695;52.960;6.188;2022-09-02T03:19:34;12.00;99.90
51615;DHT22;37695;52.960;6.188;2022-09-02T03:22:00;12.00;99.90
51615;DHT22;37695;52.960;6.188;2022-09-02T03:24:25;11.90;99.90
51615;DHT22;37695;52.960;6.188;2022-09-02T03:26:51;11.90;99.90
51615;DHT22;37695;52.960;6.188;2022-09-02T03:29:17;11.90;99.90
51615;DHT22;37695;52.960;6.188;2022-09-02T03:31:42;11.90;99.90
51615;DHT22;37695;52.960;6.188;2022-09-02T03:34:08;11.80;99.90
51615;DHT22;37695;52.960;6.188;2022-09-02T03:36:37;11.80;99.90
51615;DHT22;37695;52.960;6.188;2022-09-02T03:39:06;11.80;99.90
51615;DHT22;37695;52.960;6.188;2022-09-02T03:41:32;11.80;99.90
51615;DHT22;37695;52.960;6.188;2022-09-02T03:43:58;11.80;99.90
51615;DHT22;37695;52.960;6.188;2022-09-02T03:46:24;11.80;99.90
51615;DHT22;37695;52.960;6.188;2022-09-02T03:48:50;11.80;99.90
51615;DHT22;37695;52.960;6.188;2022-09-02T03:51:19;11.80;99.90
51615;DHT22;37695;52.960;6.188;2022-09-02T03:53:45;11.70;99.90
51615;DHT22;37695;52.960;6.188;2022-09-02T03:56:12;11.70;99.90
51615;DHT22;37695;52.960;6.188;2022-09-02T03:58:41;11.70;99.90
51615;DHT22;37695;52.960;6.188;2022-09-02T04:01:07;11.70;99.90
51615;DHT22;37695;52.960;6.188;2022-09-02T04:03:37;11.70;99.90
51615;DHT22;37695;52.960;6.188;2022-09-02T04:06:02;11.70;99.90
51615;DHT22;37695;52.960;6.188;2022-09-02T04:08:28;11.70;99.90
51615;DHT22;37695;52.960;6.188;2022-09-02T04:10:54;11.70;99.90
51615;DHT22;37695;52.960;6.188;2022-09-02T04:13:20;11.70;99.90
51615;DHT22;37695;52.960;6.188;2022-09-02T04:15:46;11.70;99.90
51615;DHT22;37695;52.960;6.188;2022-09-02T04:18:15;11.70;99.90
51615;DHT22;37695;52.960;6.188;2022-09-02T04:20:42;11.70;99.90
51615;DHT22;37695;52.960;6.188;2022-09-02T04:23:08;11.70;99.90
51615;DHT22;37695;52.960;6.188;2022-09-02T04:25:39;11.70;99.90
51615;DHT22;37695;52.960;6.188;2022-09-02T04:28:05;11.80;99.90
51615;DHT22;37695;52.960;6.188;2022-09-02T04:30:30;11.70;99.90
51615;DHT22;37695;52.960;6.188;2022-09-02T04:32:56;11.80;99.90
51615;DHT22;37695;52.960;6.188;2022-09-02T04:35:21;11.80;99.90
51615;DHT22;37695;52.960;6.188;2022-09-02T04:37:47;11.80;99.90
51615;DHT22;37695;52.960;6.188;2022-09-02T04:40:13;11.80;99.90
51615;DHT22;37695;52.960;6.188;2022-09-02T04:42:40;11.80;99.90
51615;DHT22;37695;52.960;6.188;2022-09-02T04:45:06;11.70;99.90
51615;DHT22;37695;52.960;6.188;2022-09-02T04:47:31;11.70;99.90
51615;DHT22;37695;52.960;6.188;2022-09-02T04:49:57;11.80;99.90
51615;DHT22;37695;52.960;6.188;2022-09-02T04:52:23;11.70;99.90
51615;DHT22;37695;52.960;6.188;2022-09-02T04:54:49;11.70;99.90
51615;DHT22;37695;52.960;6.188;2022-09-02T04:57:15;11.70;99.90
51615;DHT22;37695;52.960;6.188;2022-09-02T04:59:41;11.70;99.90
51615;DHT22;37695;52.960;6.188;2022-09-02T05:02:06;11.70;99.90
51615;DHT22;37695;52.960;6.188;2022-09-02T05:04:32;11.70;99.90
51615;DHT22;37695;52.960;6.188;2022-09-02T05:06:59;11.70;99.90
51615;DHT22;37695;52.960;6.188;2022-09-02T05:09:28;11.80;99.90
51615;DHT22;37695;52.960;6.188;2022-09-02T05:11:54;11.70;99.90
51615;DHT22;37695;52.960;6.188;2022-09-02T05:14:23;11.70;99.90
51615;DHT22;37695;52.960;6.188;2022-09-02T05:16:49;11.70;99.90
51615;DHT22;37695;52.960;6.188;2022-09-02T05:19:21;11.80;99.90
51615;DHT22;37695;52.960;6.188;2022-09-02T05:21:48;11.80;99.90
51615;DHT22;37695;52.960;6.188;2022-09-02T05:24:15;11.80;99.90
51615;DHT22;37695;52.960;6.188;2022-09-02T05:26:41;11.90;99.90
51615;DHT22;37695;52.960;6.188;2022-09-02T05:29:10;11.90;99.90
51615;DHT22;37695;52.960;6.188;2022-09-02T05:31:36;11.90;99.90
51615;DHT22;37695;52.960;6.188;2022-09-02T05:34:02;12.00;99.90
51615;DHT22;37695;52.960;6.188;2022-09-02T05:36:27;12.00;99.90
51615;DHT22;37695;52.960;6.188;2022-09-02T05:38:53;12.00;99.90
51615;DHT22;37695;52.960;6.188;2022-09-02T05:41:21;12.10;99.90
51615;DHT22;37695;52.960;6.188;2022-09-02T05:43:51;12.10;99.90
51615;DHT22;37695;52.960;6.188;2022-09-02T05:46:19;12.10;99.90
51615;DHT22;37695;52.960;6.188;2022-09-02T05:48:46;12.10;99.90
51615;DHT22;37695;52.960;6.188;2022-09-02T05:51:52;12.10;99.90
51615;DHT22;37695;52.960;6.188;2022-09-02T05:54:22;12.20;99.90
51615;DHT22;37695;52.960;6.188;2022-09-02T05:56:51;12.20;99.90
51615;DHT22;37695;52.960;6.188;2022-09-02T05:59:17;12.30;99.90
51615;DHT22;37695;52.960;6.188;2022-09-02T06:01:43;12.40;99.90
51615;DHT22;37695;52.960;6.188;2022-09-02T06:04:09;12.50;99.90
51615;DHT22;37695;52.960;6.188;2022-09-02T06:06:35;13.00;99.90
51615;DHT22;37695;52.960;6.188;2022-09-02T06:09:06;12.60;99.90
51615;DHT22;37695;52.960;6.188;2022-09-02T06:11:33;12.60;99.90
51615;DHT22;37695;52.960;6.188;2022-09-02T06:13:59;12.60;99.90
51615;DHT22;37695;52.960;6.188;2022-09-02T06:16:25;12.70;99.90
51615;DHT22;37695;52.960;6.188;2022-09-02T06:18:51;12.80;99.90
51615;DHT22;37695;52.960;6.188;2022-09-02T06:21:17;12.90;99.90
51615;DHT22;37695;52.960;6.188;2022-09-02T06:23:45;13.00;99.90
51615;DHT22;37695;52.960;6.188;2022-09-02T06:26:12;13.00;99.90
51615;DHT22;37695;52.960;6.188;2022-09-02T06:28:38;13.10;99.90
51615;DHT22;37695;52.960;6.188;2022-09-02T06:31:11;13.10;99.90
51615;DHT22;37695;52.960;6.188;2022-09-02T06:33:37;13.20;99.90
51615;DHT22;37695;52.960;6.188;2022-09-02T06:36:06;13.30;99.90
51615;DHT22;37695;52.960;6.188;2022-09-02T06:38:36;13.40;99.90
51615;DHT22;37695;52.960;6.188;2022-09-02T06:41:01;13.50;99.90
51615;DHT22;37695;52.960;6.188;2022-09-02T06:43:27;13.60;99.90
51615;DHT22;37695;52.960;6.188;2022-09-02T06:45:53;13.70;99.90
51615;DHT22;37695;52.960;6.188;2022-09-02T06:48:18;13.80;99.90
51615;DHT22;37695;52.960;6.188;2022-09-02T06:50:45;13.90;99.90
51615;DHT22;37695;52.960;6.188;2022-09-02T06:53:11;13.90;99.90
51615;DHT22;37695;52.960;6.188;2022-09-02T06:55:40;14.10;99.90
51615;DHT22;37695;52.960;6.188;2022-09-02T06:58:06;14.20;99.90
51615;DHT22;37695;52.960;6.188;2022-09-02T07:00:32;14.40;99.90
51615;DHT22;37695;52.960;6.188;2022-09-02T07:03:00;14.50;99.90
51615;DHT22;37695;52.960;6.188;2022-09-02T07:05:45;14.50;99.90
51615;DHT22;37695;52.960;6.188;2022-09-02T07:08:10;14.70;99.90
51615;DHT22;37695;52.960;6.188;2022-09-02T07:10:37;14.70;99.90
51615;DHT22;37695;52.960;6.188;2022-09-02T07:13:04;14.80;99.90
51615;DHT22;37695;52.960;6.188;2022-09-02T07:15:30;14.90;99.90
51615;DHT22;37695;52.960;6.188;2022-09-02T07:17:56;14.90;99.90
51615;DHT22;37695;52.960;6.188;2022-09-02T07:20:23;15.00;99.90
51615;DHT22;37695;52.960;6.188;2022-09-02T07:22:49;15.20;99.90
51615;DHT22;37695;52.960;6.188;2022-09-02T07:25:15;15.30;99.90
51615;DHT22;37695;52.960;6.188;2022-09-02T07:27:42;15.40;99.90
51615;DHT22;37695;52.960;6.188;2022-09-02T07:30:10;15.50;99.90
51615;DHT22;37695;52.960;6.188;2022-09-02T07:32:36;15.70;99.90
51615;DHT22;37695;52.960;6.188;2022-09-02T07:35:04;15.80;99.90
51615;DHT22;37695;52.960;6.188;2022-09-02T07:37:31;16.00;99.90
51615;DHT22;37695;52.960;6.188;2022-09-02T07:39:59;16.10;99.90
51615;DHT22;37695;52.960;6.188;2022-09-02T07:42:25;16.30;99.90
51615;DHT22;37695;52.960;6.188;2022-09-02T07:44:50;16.40;99.90
51615;DHT22;37695;52.960;6.188;2022-09-02T07:47:16;16.50;99.90
51615;DHT22;37695;52.960;6.188;2022-09-02T07:49:41;16.60;99.90
51615;DHT22;37695;52.960;6.188;2022-09-02T07:52:07;16.80;99.90
51615;DHT22;37695;52.960;6.188;2022-09-02T07:54:33;16.90;99.90
51615;DHT22;37695;52.960;6.188;2022-09-02T07:56:59;17.10;99.90
51615;DHT22;37695;52.960;6.188;2022-09-02T07:59:24;17.10;99.90
51615;DHT22;37695;52.960;6.188;2022-09-02T08:01:50;17.30;99.90
51615;DHT22;37695;52.960;6.188;2022-09-02T08:04:17;17.40;99.90
51615;DHT22;37695;52.960;6.188;2022-09-02T08:06:43;17.50;99.90
51615;DHT22;37695;52.960;6.188;2022-09-02T08:09:10;17.70;99.90
51615;DHT22;37695;52.960;6.188;2022-09-02T08:11:42;17.80;99.90
51615;DHT22;37695;52.960;6.188;2022-09-02T08:14:10;18.00;99.90
51615;DHT22;37695;52.960;6.188;2022-09-02T08:16:38;18.10;99.90
51615;DHT22;37695;52.960;6.188;2022-09-02T08:19:04;18.20;99.90
51615;DHT22;37695;52.960;6.188;2022-09-02T08:21:30;18.40;99.90
51615;DHT22;37695;52.960;6.188;2022-09-02T08:23:56;18.50;99.90
51615;DHT22;37695;52.960;6.188;2022-09-02T08:26:23;18.60;99.90
51615;DHT22;37695;52.960;6.188;2022-09-02T08:28:49;18.70;99.90
51615;DHT22;37695;52.960;6.188;2022-09-02T08:31:15;18.80;99.90
51615;DHT22;37695;52.960;6.188;2022-09-02T08:33:40;18.90;99.90
51615;DHT22;37695;52.960;6.188;2022-09-02T08:36:08;19.10;99.90
51615;DHT22;37695;52.960;6.188;2022-09-02T08:38:36;19.10;99.90
51615;DHT22;37695;52.960;6.188;2022-09-02T08:41:02;19.20;99.90
51615;DHT22;37695;52.960;6.188;2022-09-02T08:43:38;19.30;99.90
51615;DHT22;37695;52.960;6.188;2022-09-02T08:46:05;19.40;99.90
51615;DHT22;37695;52.960;6.188;2022-09-02T08:51:17;19.70;99.90
51615;DHT22;37695;52.960;6.188;2022-09-02T08:54:03;19.80;99.90
51615;DHT22;37695;52.960;6.188;2022-09-02T08:56:30;19.90;99.90
51615;DHT22;37695;52.960;6.188;2022-09-02T08:58:57;20.00;99.90
51615;DHT22;37695;52.960;6.188;2022-09-02T09:04:18;20.20;99.40
51615;DHT22;37695;52.960;6.188;2022-09-02T09:12:24;20.50;99.90
51615;DHT22;37695;52.960;6.188;2022-09-02T09:15:14;20.60;99.60
51615;DHT22;37695;52.960;6.188;2022-09-02T09:17:48;20.70;99.80
51615;DHT22;37695;52.960;6.188;2022-09-02T09:20:24;20.80;99.80
51615;DHT22;37695;52.960;6.188;2022-09-02T09:22:54;20.90;99.40
51615;DHT22;37695;52.960;6.188;2022-09-02T09:25:24;21.00;99.40
51615;DHT22;37695;52.960;6.188;2022-09-02T09:27:56;21.20;99.30
51615;DHT22;37695;52.960;6.188;2022-09-02T09:30:22;21.30;99.10
51615;DHT22;37695;52.960;6.188;2022-09-02T09:32:54;21.30;98.80
51615;DHT22;37695;52.960;6.188;2022-09-02T09:35:22;21.40;98.50
51615;DHT22;37695;52.960;6.188;2022-09-02T09:37:49;21.50;98.20
51615;DHT22;37695;52.960;6.188;2022-09-02T09:40:21;21.50;98.10
51615;DHT22;37695;52.960;6.188;2022-09-02T09:45:37;21.70;97.10
51615;DHT22;37695;52.960;6.188;2022-09-02T09:50:39;22.00;96.10
51615;DHT22;37695;52.960;6.188;2022-09-02T09:58:16;22.30;94.80
51615;DHT22;37695;52.960;6.188;2022-09-02T10:00:41;22.30;96.10
51615;DHT22;37695;52.960;6.188;2022-09-02T10:03:07;22.40;96.50
51615;DHT22;37695;52.960;6.188;2022-09-02T10:05:42;22.50;96.20
51615;DHT22;37695;52.960;6.188;2022-09-02T10:11:18;22.60;94.10
51615;DHT22;37695;52.960;6.188;2022-09-02T10:13:44;22.70;93.60
51615;DHT22;37695;52.960;6.188;2022-09-02T10:21:47;23.10;93.50
51615;DHT22;37695;52.960;6.188;2022-09-02T10:27:15;23.30;90.10
51615;DHT22;37695;52.960;6.188;2022-09-02T10:29:54;23.50;92.80
51615;DHT22;37695;52.960;6.188;2022-09-02T10:35:45;23.60;90.10
51615;DHT22;37695;52.960;6.188;2022-09-02T10:46:56;23.90;87.20
51615;DHT22;37695;52.960;6.188;2022-09-02T10:55:05;24.00;87.00
51615;DHT22;37695;52.960;6.188;2022-09-02T10:57:59;24.20;84.60
51615;DHT22;37695;52.960;6.188;2022-09-02T11:00:27;24.40;80.40
51615;DHT22;37695;52.960;6.188;2022-09-02T11:05:55;24.50;81.90
51615;DHT22;37695;52.960;6.188;2022-09-02T11:08:47;24.60;83.60
51615;DHT22;37695;52.960;6.188;2022-09-02T11:11:26;24.70;78.50
51615;DHT22;37695;52.960;6.188;2022-09-02T11:16:48;24.90;77.60
51615;DHT22;37695;52.960;6.188;2022-09-02T11:19:26;24.90;78.30
51615;DHT22;37695;52.960;6.188;2022-09-02T11:24:54;24.90;78.40
51615;DHT22;37695;52.960;6.188;2022-09-02T11:27:40;25.00;75.30
51615;DHT22;37695;52.960;6.188;2022-09-02T11:30:12;25.10;74.90
51615;DHT22;37695;52.960;6.188;2022-09-02T11:33:09;25.00;76.40
51615;DHT22;37695;52.960;6.188;2022-09-02T11:35:37;25.00;74.90
51615;DHT22;37695;52.960;6.188;2022-09-02T11:41:06;25.00;70.20
51615;DHT22;37695;52.960;6.188;2022-09-02T11:44:16;25.00;75.70
51615;DHT22;37695;52.960;6.188;2022-09-02T11:55:18;25.00;70.70
51615;DHT22;37695;52.960;6.188;2022-09-02T11:57:51;25.10;71.50
51615;DHT22;37695;52.960;6.188;2022-09-02T12:00:27;25.10;71.30
51615;DHT22;37695;52.960;6.188;2022-09-02T12:03:08;25.20;71.50
51615;DHT22;37695;52.960;6.188;2022-09-02T12:08:02;25.20;72.40
51615;DHT22;37695;52.960;6.188;2022-09-02T12:18:44;25.10;67.30
51615;DHT22;37695;52.960;6.188;2022-09-02T12:21:14;25.00;69.50
51615;DHT22;37695;52.960;6.188;2022-09-02T12:31:51;25.20;70.20
51615;DHT22;37695;52.960;6.188;2022-09-02T12:36:51;25.20;68.70
51615;DHT22;37695;52.960;6.188;2022-09-02T12:50:02;24.80;67.90
51615;DHT22;37695;52.960;6.188;2022-09-02T12:55:25;24.80;66.30
51615;DHT22;37695;52.960;6.188;2022-09-02T12:58:03;24.80;66.20
51615;DHT22;37695;52.960;6.188;2022-09-02T13:06:24;24.70;67.80
51615;DHT22;37695;52.960;6.188;2022-09-02T13:09:14;24.60;64.70
51615;DHT22;37695;52.960;6.188;2022-09-02T13:12:12;24.60;67.00
51615;DHT22;37695;52.960;6.188;2022-09-02T13:17:26;24.80;66.30
51615;DHT22;37695;52.960;6.188;2022-09-02T13:20:08;24.80;67.30
51615;DHT22;37695;52.960;6.188;2022-09-02T13:29:08;24.80;66.10
51615;DHT22;37695;52.960;6.188;2022-09-02T13:31:39;24.80;65.50
51615;DHT22;37695;52.960;6.188;2022-09-02T13:34:10;24.80;67.20
51615;DHT22;37695;52.960;6.188;2022-09-02T13:39:17;24.90;67.70
51615;DHT22;37695;52.960;6.188;2022-09-02T13:41:45;24.80;66.20
51615;DHT22;37695;52.960;6.188;2022-09-02T13:44:27;24.70;66.50
51615;DHT22;37695;52.960;6.188;2022-09-02T13:46:58;24.60;64.00
51615;DHT22;37695;52.960;6.188;2022-09-02T13:49:34;24.60;66.00
51615;DHT22;37695;52.960;6.188;2022-09-02T13:52:00;24.60;65.70
51615;DHT22;37695;52.960;6.188;2022-09-02T13:54:35;24.60;65.20
51615;DHT22;37695;52.960;6.188;2022-09-02T13:57:06;24.60;65.60
51615;DHT22;37695;52.960;6.188;2022-09-02T13:59:47;24.60;66.10
51615;DHT22;37695;52.960;6.188;2022-09-02T14:02:35;24.60;64.80
51615;DHT22;37695;52.960;6.188;2022-09-02T14:05:14;24.60;65.10
51615;DHT22;37695;52.960;6.188;2022-09-02T14:07:44;24.70;65.30
51615;DHT22;37695;52.960;6.188;2022-09-02T14:10:15;24.60;66.10
51615;DHT22;37695;52.960;6.188;2022-09-02T14:12:42;24.70;65.60
51615;DHT22;37695;52.960;6.188;2022-09-02T14:15:12;24.60;65.20
51615;DHT22;37695;52.960;6.188;2022-09-02T14:17:38;24.70;64.50
51615;DHT22;37695;52.960;6.188;2022-09-02T14:20:09;24.60;65.30
51615;DHT22;37695;52.960;6.188;2022-09-02T14:22:35;24.70;65.20
51615;DHT22;37695;52.960;6.188;2022-09-02T14:25:28;24.70;66.10
51615;DHT22;37695;52.960;6.188;2022-09-02T14:27:58;24.70;65.20
51615;DHT22;37695;52.960;6.188;2022-09-02T14:30:37;24.60;65.30
51615;DHT22;37695;52.960;6.188;2022-09-02T14:33:25;24.40;64.50
51615;DHT22;37695;52.960;6.188;2022-09-02T14:36:11;24.30;63.90
51615;DHT22;37695;52.960;6.188;2022-09-02T14:38:53;24.30;64.00
51615;DHT22;37695;52.960;6.188;2022-09-02T14:41:23;24.30;65.00
51615;DHT22;37695;52.960;6.188;2022-09-02T14:43:57;24.20;66.10
51615;DHT22;37695;52.960;6.188;2022-09-02T14:49:06;24.10;65.50
51615;DHT22;37695;52.960;6.188;2022-09-02T14:51:36;24.10;66.00
51615;DHT22;37695;52.960;6.188;2022-09-02T14:54:03;24.10;65.40
51615;DHT22;37695;52.960;6.188;2022-09-02T14:56:50;24.10;65.10
51615;DHT22;37695;52.960;6.188;2022-09-02T14:59:17;24.20;66.00
51615;DHT22;37695;52.960;6.188;2022-09-02T15:01:48;24.30;66.20
51615;DHT22;37695;52.960;6.188;2022-09-02T15:04:16;24.30;67.10
51615;DHT22;37695;52.960;6.188;2022-09-02T15:06:43;24.30;66.20
51615;DHT22;37695;52.960;6.188;2022-09-02T15:09:10;24.30;66.00
51615;DHT22;37695;52.960;6.188;2022-09-02T15:11:39;24.40;65.50
51615;DHT22;37695;52.960;6.188;2022-09-02T15:14:05;24.30;65.00
51615;DHT22;37695;52.960;6.188;2022-09-02T15:16:31;24.40;65.10
51615;DHT22;37695;52.960;6.188;2022-09-02T15:18:57;24.30;65.30
51615;DHT22;37695;52.960;6.188;2022-09-02T15:21:22;24.40;65.70
51615;DHT22;37695;52.960;6.188;2022-09-02T15:23:48;24.40;65.60
51615;DHT22;37695;52.960;6.188;2022-09-02T15:26:14;24.40;65.30
51615;DHT22;37695;52.960;6.188;2022-09-02T15:28:40;24.40;65.40
51615;DHT22;37695;52.960;6.188;2022-09-02T15:31:06;24.40;65.70
51615;DHT22;37695;52.960;6.188;2022-09-02T15:33:32;24.40;66.10
51615;DHT22;37695;52.960;6.188;2022-09-02T15:36:05;24.30;65.80
51615;DHT22;37695;52.960;6.188;2022-09-02T15:38:31;24.30;65.00
51615;DHT22;37695;52.960;6.188;2022-09-02T15:41:07;24.20;65.90
51615;DHT22;37695;52.960;6.188;2022-09-02T15:43:34;24.10;65.20
51615;DHT22;37695;52.960;6.188;2022-09-02T15:45:59;24.00;64.70
51615;DHT22;37695;52.960;6.188;2022-09-02T15:48:25;24.10;64.70
51615;DHT22;37695;52.960;6.188;2022-09-02T15:50:50;24.10;64.60
51615;DHT22;37695;52.960;6.188;2022-09-02T15:53:16;24.00;64.80
51615;DHT22;37695;52.960;6.188;2022-09-02T15:55:41;24.00;64.90
51615;DHT22;37695;52.960;6.188;2022-09-02T15:58:07;24.00;65.20
51615;DHT22;37695;52.960;6.188;2022-09-02T16:00:34;24.00;65.50
51615;DHT22;37695;52.960;6.188;2022-09-02T16:02:59;23.90;65.50
51615;DHT22;37695;52.960;6.188;2022-09-02T16:05:25;23.90;65.20
51615;DHT22;37695;52.960;6.188;2022-09-02T16:07:51;23.80;65.00
51615;DHT22;37695;52.960;6.188;2022-09-02T16:10:19;23.80;65.20
51615;DHT22;37695;52.960;6.188;2022-09-02T16:12:44;23.80;65.60
51615;DHT22;37695;52.960;6.188;2022-09-02T16:15:10;23.80;66.30
51615;DHT22;37695;52.960;6.188;2022-09-02T16:17:36;23.70;66.00
51615;DHT22;37695;52.960;6.188;2022-09-02T16:20:02;23.70;66.00
51615;DHT22;37695;52.960;6.188;2022-09-02T16:22:38;23.70;66.50
51615;DHT22;37695;52.960;6.188;2022-09-02T16:25:07;23.60;64.20
51615;DHT22;37695;52.960;6.188;2022-09-02T16:27:42;23.60;66.90
51615;DHT22;37695;52.960;6.188;2022-09-02T16:30:18;23.60;67.30
51615;DHT22;37695;52.960;6.188;2022-09-02T16:32:43;23.50;67.20
51615;DHT22;37695;52.960;6.188;2022-09-02T16:35:09;23.40;67.10
51615;DHT22;37695;52.960;6.188;2022-09-02T16:37:34;23.40;67.50
51615;DHT22;37695;52.960;6.188;2022-09-02T16:40:00;23.40;66.70
51615;DHT22;37695;52.960;6.188;2022-09-02T16:42:27;23.20;66.80
51615;DHT22;37695;52.960;6.188;2022-09-02T16:44:53;23.10;67.20
51615;DHT22;37695;52.960;6.188;2022-09-02T16:47:18;23.00;67.90
51615;DHT22;37695;52.960;6.188;2022-09-02T16:49:44;22.90;68.50
51615;DHT22;37695;52.960;6.188;2022-09-02T16:52:10;22.80;68.90
51615;DHT22;37695;52.960;6.188;2022-09-02T16:54:36;22.80;68.50
51615;DHT22;37695;52.960;6.188;2022-09-02T16:57:02;22.70;69.40
51615;DHT22;37695;52.960;6.188;2022-09-02T16:59:28;22.60;69.20
51615;DHT22;37695;52.960;6.188;2022-09-02T17:01:55;22.50;69.50
51615;DHT22;37695;52.960;6.188;2022-09-02T17:04:21;22.50;70.00
51615;DHT22;37695;52.960;6.188;2022-09-02T17:06:47;22.40;70.80
51615;DHT22;37695;52.960;6.188;2022-09-02T17:09:13;22.30;71.10
51615;DHT22;37695;52.960;6.188;2022-09-02T17:11:39;22.20;71.60
51615;DHT22;37695;52.960;6.188;2022-09-02T17:14:12;22.10;72.40
51615;DHT22;37695;52.960;6.188;2022-09-02T17:16:43;22.00;72.80
51615;DHT22;37695;52.960;6.188;2022-09-02T17:19:09;22.00;73.30
51615;DHT22;37695;52.960;6.188;2022-09-02T17:21:41;21.90;73.60
51615;DHT22;37695;52.960;6.188;2022-09-02T17:24:08;21.80;74.00
51615;DHT22;37695;52.960;6.188;2022-09-02T17:26:36;21.80;74.60
51615;DHT22;37695;52.960;6.188;2022-09-02T17:29:09;21.70;75.20
51615;DHT22;37695;52.960;6.188;2022-09-02T17:31:35;21.60;75.50
51615;DHT22;37695;52.960;6.188;2022-09-02T17:34:05;21.60;75.70
51615;DHT22;37695;52.960;6.188;2022-09-02T17:36:33;21.50;76.70
51615;DHT22;37695;52.960;6.188;2022-09-02T17:39:02;21.50;77.40
51615;DHT22;37695;52.960;6.188;2022-09-02T17:41:28;21.40;77.60
51615;DHT22;37695;52.960;6.188;2022-09-02T17:44:13;21.30;77.30
51615;DHT22;37695;52.960;6.188;2022-09-02T17:46:40;21.30;77.70
51615;DHT22;37695;52.960;6.188;2022-09-02T17:49:06;21.30;78.20
51615;DHT22;37695;52.960;6.188;2022-09-02T17:51:32;21.30;78.50
51615;DHT22;37695;52.960;6.188;2022-09-02T17:53:58;21.20;78.60